Time;durP1;ratioP1;P1;durP2;ratioP2;P2;SDS_P1;SDS_P2;PMS_P1;PMS_P2;Temp;Humidity;BMP_temperature;BMP_pressure;BME280_temperature;BME280_humidity;BME280_pressure;Samples;Min_cycle;Max_cycle;Signal;HPM_P1;HPM_P2
2021/11/05 00:13:45;;;;;;;0.30;0.30;;;23.00;63.60;;;;;;31386748;28;20045;-37
2021/11/05 00:28:47;;;;;;;0.20;0.20;;;22.90;63.80;;;;;;31385844;28;20116;-39
2021/11/05 00:43:50;;;;;;;0.20;0.20;;;22.90;64.20;;;;;;31381968;28;20057;-38
2021/11/05 00:58:52;;;;;;;0.15;0.10;;;23.00;64.00;;;;;;31381428;28;20105;-41
2021/11/05 01:13:54;;;;;;;3.13;0.20;;;23.00;64.20;;;;;;31378076;28;20065;-38
2021/11/05 01:28:56;;;;;;;0.10;0.10;;;22.90;64.30;;;;;;31377858;28;20084;-43
2021/11/05 01:43:58;;;;;;;0.10;0.10;;;22.90;64.30;;;;;;31375331;28;20100;-44
2021/11/05 01:59:00;;;;;;;0.15;0.15;;;22.90;64.30;;;;;;31376772;28;20125;-36
2021/11/05 02:14:05;;;;;;;0.10;0.10;;;22.90;64.00;;;;;;31374308;28;20049;-38
2021/11/05 02:29:08;;;;;;;0.08;0.08;;;22.90;64.20;;;;;;31374188;28;20049;-37
2021/11/05 02:44:10;;;;;;;0.63;0.10;;;22.90;64.10;;;;;;31372216;28;20049;-38
2021/11/05 02:59:12;;;;;;;2.53;0.20;;;22.90;64.10;;;;;;31370186;28;20055;-46
2021/11/05 03:14:14;;;;;;;1.08;0.10;;;23.00;64.40;;;;;;31369224;28;20154;-45
2021/11/05 03:29:16;;;;;;;2.17;0.20;;;23.40;63.80;;;;;;31368619;28;20069;-38
2021/11/05 03:44:19;;;;;;;3.60;0.20;;;23.50;64.40;;;;;;31383719;28;20060;-37
2021/11/05 03:59:21;;;;;;;1.17;0.10;;;23.40;64.10;;;;;;31387599;28;20042;-37
2021/11/05 04:14:23;;;;;;;0.10;0.10;;;23.30;64.10;;;;;;31387761;28;20120;-36
2021/11/05 04:29:29;;;;;;;0.13;0.10;;;23.30;64.10;;;;;;31386740;28;20071;-37
2021/11/05 04:44:31;;;;;;;0.30;0.10;;;23.20;64.20;;;;;;31382498;28;20077;-45
2021/11/05 04:59:33;;;;;;;0.13;0.13;;;23.10;64.30;;;;;;31380754;28;20069;-43
2021/11/05 05:14:35;;;;;;;1.92;0.10;;;23.10;64.40;;;;;;31378221;28;20079;-42
2021/11/05 05:29:37;;;;;;;1.58;0.82;;;23.00;64.50;;;;;;31381740;28;20052;-43
2021/11/05 05:44:39;;;;;;;14.10;5.95;;;23.00;64.60;;;;;;31374808;28;20065;-46
2021/11/05 05:59:44;;;;;;;11.95;6.47;;;22.70;60.50;;;;;;31375716;28;20405;-36
2021/11/05 06:14:46;;;;;;;10.85;6.93;;;22.90;62.00;;;;;;31372053;28;20053;-45
2021/11/05 06:29:48;;;;;;;16.58;7.07;;;23.20;60.60;;;;;;31363528;28;20041;-37
2021/11/05 06:44:52;;;;;;;11.20;7.35;;;23.20;59.40;;;;;;31366045;28;20121;-46
2021/11/05 06:59:56;;;;;;;15.65;8.00;;;23.00;58.30;;;;;;31369037;28;20053;-36
2021/11/05 07:14:59;;;;;;;11.88;6.93;;;23.10;58.40;;;;;;31380279;28;20096;-37
2021/11/05 07:30:08;;;;;;;14.40;6.78;;;22.90;58.70;;;;;;31389815;28;20120;-36
2021/11/05 07:45:11;;;;;;;8.83;5.40;;;22.90;59.00;;;;;;31391270;28;20107;-42
2021/11/05 08:00:14;;;;;;;8.20;5.03;;;22.80;59.10;;;;;;31388654;28;20045;-37
2021/11/05 08:15:21;;;;;;;8.20;4.75;;;22.80;59.00;;;;;;31387511;28;20064;-36
2021/11/05 08:30:25;;;;;;;6.72;3.75;;;23.20;58.70;;;;;;31384663;28;20065;-46
2021/11/05 08:45:26;;;;;;;8.68;4.15;;;23.30;58.90;;;;;;31381938;28;20080;-37
2021/11/05 09:00:32;;;;;;;10.93;3.88;;;23.20;58.90;;;;;;31381716;28;20078;-36
2021/11/05 09:15:36;;;;;;;7.65;4.28;;;23.20;58.30;;;;;;31373328;28;20041;-38
2021/11/05 09:30:38;;;;;;;8.15;4.40;;;23.10;58.30;;;;;;31377143;28;20052;-37
2021/11/05 09:45:40;;;;;;;10.40;4.00;;;22.90;58.80;;;;;;31373035;28;20076;-37
2021/11/05 10:00:42;;;;;;;12.40;4.15;;;22.90;59.20;;;;;;31371789;28;20053;-37
2021/11/05 10:15:48;;;;;;;8.05;3.72;;;22.80;59.10;;;;;;31371409;28;20045;-45
2021/11/05 10:31:00;;;;;;;5.93;3.13;;;22.90;59.20;;;;;;31369579;28;20048;-45
2021/11/05 10:46:05;;;;;;;5.00;2.90;;;23.00;59.20;;;;;;31382620;28;20117;-45
2021/11/05 11:01:08;;;;;;;6.50;2.58;;;23.40;58.70;;;;;;31410473;28;20045;-45
2021/11/05 11:16:33;;;;;;;4.32;2.92;;;23.50;58.70;;;;;;31049698;28;9999829;-47
2021/11/05 11:31:36;;;;;;;6.30;2.45;;;23.40;59.30;;;;;;31480753;28;20060;-50
2021/11/05 11:47:01;;;;;;;6.88;2.55;;;23.30;59.50;;;;;;31523818;28;20104;-38
2021/11/05 12:02:28;;;;;;;4.50;2.78;;;23.30;60.10;;;;;;31520245;28;20082;-37
2021/11/05 12:17:50;;;;;;;4.57;2.63;;;23.20;60.20;;;;;;31514421;28;20068;-37
2021/11/05 12:33:24;;;;;;;8.98;3.05;;;23.20;60.30;;;;;;31512017;28;20048;-36
2021/11/05 12:48:39;;;;;;;5.97;2.75;;;23.10;60.70;;;;;;31510178;28;20076;-36
2021/11/05 13:03:41;;;;;;;6.47;2.92;;;23.10;61.20;;;;;;31508555;28;20052;-36
2021/11/05 13:18:44;;;;;;;6.22;3.10;;;23.00;61.60;;;;;;31502387;28;20158;-38
2021/11/05 13:33:46;;;;;;;5.97;2.55;;;22.90;62.00;;;;;;31502958;28;20125;-37
2021/11/05 13:48:51;;;;;;;5.45;2.38;;;23.20;61.10;;;;;;31501885;28;20104;-37
2021/11/05 14:04:02;;;;;;;8.18;2.80;;;23.40;60.80;;;;;;31499492;28;20048;-36
2021/11/05 14:19:09;;;;;;;5.40;2.65;;;23.50;61.30;;;;;;31488051;28;20097;-36
2021/11/05 14:34:11;;;;;;;17.83;11.02;;;23.50;61.70;;;;;;31039416;28;9999979;-35
2021/11/05 14:49:18;;;;;;;20.08;13.55;;;23.40;62.20;;;;;;31365844;28;20057;-35
2021/11/05 15:04:24;;;;;;;18.67;12.57;;;23.40;62.50;;;;;;31365328;28;20048;-35
2021/11/05 15:19:27;;;;;;;19.17;13.45;;;23.30;62.80;;;;;;31362294;28;20049;-37
2021/11/05 15:34:31;;;;;;;16.92;13.88;;;23.20;63.30;;;;;;31368738;28;20052;-37
2021/11/05 15:49:33;;;;;;;16.95;13.35;;;23.10;63.20;;;;;;31381634;28;20057;-37
2021/11/05 16:04:35;;;;;;;15.77;12.95;;;23.00;63.50;;;;;;31422154;28;20037;-44
2021/11/05 16:19:37;;;;;;;17.45;13.00;;;23.00;63.60;;;;;;31506344;28;20071;-37
2021/11/05 16:34:39;;;;;;;21.80;12.55;;;22.90;64.10;;;;;;31508570;28;20085;-37
2021/11/05 16:49:45;;;;;;;18.52;12.60;;;22.90;64.40;;;;;;31508591;28;20056;-38
2021/11/05 17:04:47;;;;;;;18.25;11.75;;;23.00;64.00;;;;;;31387631;28;20460;-36
2021/11/05 17:19:49;;;;;;;20.20;12.63;;;22.90;63.80;;;;;;31377547;28;20049;-37
2021/11/05 17:34:52;;;;;;;26.13;12.98;;;23.00;64.10;;;;;;31408379;28;20049;-38
2021/11/05 17:49:54;;;;;;;25.73;14.23;;;22.90;64.10;;;;;;31058608;28;9999744;-36
2021/11/05 18:04:56;;;;;;;24.52;15.13;;;22.90;63.80;;;;;;31365249;28;20042;-35
2021/11/05 18:19:58;;;;;;;27.80;16.48;;;22.80;64.20;;;;;;31390042;28;20079;-35
2021/11/05 18:35:02;;;;;;;28.63;17.35;;;22.60;64.60;;;;;;31373674;28;20058;-44
2021/11/05 18:50:05;;;;;;;48.33;27.73;;;22.50;64.80;;;;;;31360684;28;20076;-44
2021/11/05 19:05:07;;;;;;;17.83;10.90;;;22.60;63.50;;;;;;31374501;28;20069;-45
2021/11/05 19:20:09;;;;;;;52.47;28.83;;;22.90;61.90;;;;;;31386662;28;20091;-35
2021/11/05 19:35:12;;;;;;;62.35;28.88;;;22.90;62.70;;;;;;31382605;28;20140;-37
2021/11/05 19:50:17;;;;;;;55.95;29.15;;;22.70;63.60;;;;;;31381037;28;20049;-38
2021/11/05 20:05:21;;;;;;;63.80;31.92;;;22.70;63.70;;;;;;31393603;28;20045;-38
2021/11/05 20:20:26;;;;;;;53.65;27.08;;;22.90;62.70;;;;;;31434053;28;20044;-38
2021/11/05 20:35:30;;;;;;;42.50;24.73;;;22.90;62.40;;;;;;31423916;28;20083;-44
2021/11/05 20:50:33;;;;;;;39.03;21.90;;;23.10;61.90;;;;;;31382325;28;20061;-45
2021/11/05 21:05:35;;;;;;;37.28;21.38;;;23.20;61.80;;;;;;31380195;28;20045;-44
2021/11/05 21:20:37;;;;;;;34.13;18.67;;;23.20;61.70;;;;;;31383033;28;20049;-39
2021/11/05 21:35:39;;;;;;;30.58;17.50;;;23.20;61.80;;;;;;31384074;28;20058;-37
2021/11/05 21:50:42;;;;;;;30.80;17.30;;;23.30;61.90;;;;;;31376097;28;20093;-37
2021/11/05 22:05:44;;;;;;;24.77;15.65;;;23.30;62.00;;;;;;31373881;28;20072;-45
2021/11/05 22:20:46;;;;;;;26.17;16.10;;;23.30;61.80;;;;;;31376644;28;20053;-36
2021/11/05 22:35:48;;;;;;;23.58;14.35;;;23.30;62.10;;;;;;31372387;28;20064;-36
2021/11/05 22:50:50;;;;;;;26.23;15.07;;;23.30;62.00;;;;;;31360619;28;20061;-42
2021/11/05 23:05:53;;;;;;;27.83;14.38;;;23.30;62.40;;;;;;31371348;28;20092;-42
2021/11/05 23:21:00;;;;;;;23.73;13.18;;;23.20;62.40;;;;;;31373766;28;20046;-35
2021/11/05 23:36:03;;;;;;;20.58;12.93;;;23.10;62.60;;;;;;31368707;28;20085;-41
2021/11/05 23:51:05;;;;;;;22.25;13.60;;;23.10;62.60;;;;;;31468037;28;20048;-37
